Kanyo Maru — JG5144 — position and weather

sailwx.info

Track history (hours):
 
Tides and Currents Weather Stations Pressure Air Temp Water Temp Dewpoint Dewpoint Depression Visibility Wind Speed Wind Dir Waves Ship Positions

Kanyo Maru

Last reported at 2018-Jun-21 21:28 UTC. Time now 2018-Jun-21 21:36 UTC.
Position N 35°31' E 139°44'.

Length 115 m; draft 5.3 m.

Type: Cargo ship. MMSI: 431300018.

Date/timePositionNaut miles runAvg speedWind from/ knotsBaromVisibWave heightAir tempDewpointWater temp
2018-Jun-21 21:28N 35°31' E 139°44'0 0.0
2018-Jun-21 20:49N 35°31' E 139°44'0 0.0
2018-Jun-21 20:28N 35°31' E 139°44'0 0.0
2018-Jun-21 19:55N 35°31' E 139°44'0 0.0
2018-Jun-21 19:25N 35°31' E 139°44'0 0.0
2018-Jun-21 18:55N 35°31' E 139°44'0 0.0
2018-Jun-21 18:25N 35°31' E 139°44'0 0.0
2018-Jun-21 17:49N 35°31' E 139°44'0 0.0
2018-Jun-21 17:25N 35°31' E 139°44'0 0.0
2018-Jun-21 16:55N 35°31' E 139°44'0 0.0
2018-Jun-21 16:25N 35°31' E 139°44'0 0.0
2018-Jun-21 15:55N 35°31' E 139°44'0 0.0
2018-Jun-21 15:25N 35°31' E 139°44'0 0.0
2018-Jun-21 14:55N 35°31' E 139°44'0 0.0
2018-Jun-21 14:25N 35°31' E 139°44'0 0.0
2018-Jun-21 13:55N 35°31' E 139°44'0 0.0
2018-Jun-21 13:25N 35°31' E 139°44'0 0.0
2018-Jun-21 12:55N 35°31' E 139°44'0 0.0
2018-Jun-21 12:25N 35°31' E 139°44'0 0.0
2018-Jun-21 11:55N 35°31' E 139°44'0 0.0
2018-Jun-21 11:25N 35°31' E 139°44'0 0.0
2018-Jun-21 10:55N 35°31' E 139°44'0 0.0
2018-Jun-21 10:19N 35°31' E 139°44'0 0.0
2018-Jun-21 09:55N 35°31' E 139°44'0 0.0
2018-Jun-21 08:49N 35°31' E 139°44'0 0.0
2018-Jun-21 08:25N 35°31' E 139°44'0 0.0
2018-Jun-21 07:55N 35°31' E 139°44'0 0.2
2018-Jun-21 07:28N 35°31' E 139°44'1 2.6
2018-Jun-21 07:00N 35°30' E 139°44'3 5.5
2018-Jun-21 06:30N 35°27' E 139°45'510.8
2018-Jun-21 06:00N 35°29' E 139°51'611.2
2018-Jun-21 05:30N 35°35' E 139°50'2 0.4
2018-Jun-20 22:57N 35°37' E 139°50'0 0.1
2018-Jun-20 22:27N 35°37' E 139°50'2 3.8
2018-Jun-20 21:53N 35°35' E 139°51'2 0.2
2018-Jun-20 12:43N 35°34' E 139°53'0 0.0
2018-Jun-20 12:24N 35°34' E 139°53'0 0.0
2018-Jun-20 12:00N 35°34' E 139°53'0 0.0
2018-Jun-20 11:06N 35°34' E 139°53'0 0.1
2018-Jun-20 11:00N 35°34' E 139°53'0 0.0
2018-Jun-20 10:30N 35°34' E 139°53'0 0.0
2018-Jun-20 09:07N 35°34' E 139°53'0 0.0
2018-Jun-20 08:58N 35°34' E 139°53'0 0.0
2018-Jun-20 06:27N 35°34' E 139°53'0 0.0
2018-Jun-20 03:48N 35°34' E 139°53'0 0.0
2018-Jun-20 03:12N 35°34' E 139°53'0 0.0
2018-Jun-19 23:39N 35°34' E 139°53'0 0.0
2018-Jun-19 23:15N 35°34' E 139°53'0 0.0
2018-Jun-19 20:30N 35°34' E 139°53'0 0.0
2018-Jun-19 19:18N 35°34' E 139°53'0 0.0
2018-Jun-19 18:48N 35°34' E 139°53'0 0.0
2018-Jun-19 18:12N 35°34' E 139°53'0 0.0
2018-Jun-19 18:00N 35°34' E 139°53'0 0.0
2018-Jun-19 17:24N 35°34' E 139°53'0 0.0
2018-Jun-19 16:54N 35°34' E 139°53'0 0.1
2018-Jun-19 16:24N 35°34' E 139°53'0 0.7
2018-Jun-19 15:59N 35°34' E 139°53'610.3
2018-Jun-19 15:24N 35°28' E 139°51'411.0
2018-Jun-19 15:00N 35°25' E 139°47'510.7
2018-Jun-19 14:30N 35°20' E 139°45'510.1
2018-Jun-19 14:00N 35°15' E 139°47'611.1
2018-Jun-19 13:30N 35°10' E 139°46'  
Track history (hours):
 
Tides and Currents Weather Stations Pressure Air Temp Water Temp Dewpoint Dewpoint Depression Visibility Wind Speed Wind Dir Waves Ship Positions

Kanyo Maru

Last reported at 2018-Jun-21 21:28 UTC. Time now 2018-Jun-21 21:36 UTC.
Position N 35°31' E 139°44'.

Length 115 m; draft 5.3 m.

Type: Cargo ship. MMSI: 431300018.

Date/timePositionNaut miles runAvg speedWind from/ knotsBaromVisibWave heightAir tempDewpointWater temp
2018-Jun-21 21:28N 35°31' E 139°44'0 0.0
2018-Jun-21 20:49N 35°31' E 139°44'0 0.0
2018-Jun-21 20:28N 35°31' E 139°44'0 0.0
2018-Jun-21 19:55N 35°31' E 139°44'0 0.0
2018-Jun-21 19:25N 35°31' E 139°44'0 0.0
2018-Jun-21 18:55N 35°31' E 139°44'0 0.0
2018-Jun-21 18:25N 35°31' E 139°44'0 0.0
2018-Jun-21 17:49N 35°31' E 139°44'0 0.0
2018-Jun-21 17:25N 35°31' E 139°44'0 0.0
2018-Jun-21 16:55N 35°31' E 139°44'0 0.0
2018-Jun-21 16:25N 35°31' E 139°44'0 0.0
2018-Jun-21 15:55N 35°31' E 139°44'0 0.0
2018-Jun-21 15:25N 35°31' E 139°44'0 0.0
2018-Jun-21 14:55N 35°31' E 139°44'0 0.0
2018-Jun-21 14:25N 35°31' E 139°44'0 0.0
2018-Jun-21 13:55N 35°31' E 139°44'0 0.0
2018-Jun-21 13:25N 35°31' E 139°44'0 0.0
2018-Jun-21 12:55N 35°31' E 139°44'0 0.0
2018-Jun-21 12:25N 35°31' E 139°44'0 0.0
2018-Jun-21 11:55N 35°31' E 139°44'0 0.0
2018-Jun-21 11:25N 35°31' E 139°44'0 0.0
2018-Jun-21 10:55N 35°31' E 139°44'0 0.0
2018-Jun-21 10:19N 35°31' E 139°44'0 0.0
2018-Jun-21 09:55N 35°31' E 139°44'0 0.0
2018-Jun-21 08:49N 35°31' E 139°44'0 0.0
2018-Jun-21 08:25N 35°31' E 139°44'0 0.0
2018-Jun-21 07:55N 35°31' E 139°44'0 0.2
2018-Jun-21 07:28N 35°31' E 139°44'1 2.6
2018-Jun-21 07:00N 35°30' E 139°44'3 5.5
2018-Jun-21 06:30N 35°27' E 139°45'510.8
2018-Jun-21 06:00N 35°29' E 139°51'611.2
2018-Jun-21 05:30N 35°35' E 139°50'2 0.4
2018-Jun-20 22:57N 35°37' E 139°50'0 0.1
2018-Jun-20 22:27N 35°37' E 139°50'2 3.8
2018-Jun-20 21:53N 35°35' E 139°51'2 0.2
2018-Jun-20 12:43N 35°34' E 139°53'0 0.0
2018-Jun-20 12:24N 35°34' E 139°53'0 0.0
2018-Jun-20 12:00N 35°34' E 139°53'0 0.0
2018-Jun-20 11:06N 35°34' E 139°53'0 0.1
2018-Jun-20 11:00N 35°34' E 139°53'0 0.0
2018-Jun-20 10:30N 35°34' E 139°53'0 0.0
2018-Jun-20 09:07N 35°34' E 139°53'0 0.0
2018-Jun-20 08:58N 35°34' E 139°53'0 0.0
2018-Jun-20 06:27N 35°34' E 139°53'0 0.0
2018-Jun-20 03:48N 35°34' E 139°53'0 0.0
2018-Jun-20 03:12N 35°34' E 139°53'0 0.0
2018-Jun-19 23:39N 35°34' E 139°53'0 0.0
2018-Jun-19 23:15N 35°34' E 139°53'0 0.0
2018-Jun-19 20:30N 35°34' E 139°53'0 0.0
2018-Jun-19 19:18N 35°34' E 139°53'0 0.0
2018-Jun-19 18:48N 35°34' E 139°53'0 0.0
2018-Jun-19 18:12N 35°34' E 139°53'0 0.0
2018-Jun-19 18:00N 35°34' E 139°53'0 0.0
2018-Jun-19 17:24N 35°34' E 139°53'0 0.0
2018-Jun-19 16:54N 35°34' E 139°53'0 0.1
2018-Jun-19 16:24N 35°34' E 139°53'0 0.7
2018-Jun-19 15:59N 35°34' E 139°53'610.3
2018-Jun-19 15:24N 35°28' E 139°51'411.0
2018-Jun-19 15:00N 35°25' E 139°47'510.7
2018-Jun-19 14:30N 35°20' E 139°45'510.1
2018-Jun-19 14:00N 35°15' E 139°47'611.1
2018-Jun-19 13:30N 35°10' E 139°46'  

Dump ship's entire track history